Time;durP1;ratioP1;P1;durP2;ratioP2;P2;SDS_P1;SDS_P2;PMS_P1;PMS_P2;Temp;Humidity;BMP_temperature;BMP_pressure;BME280_temperature;BME280_humidity;BME280_pressure;Samples;Min_cycle;Max_cycle;Signal;HPM_P1;HPM_P2
2022/12/25 00:00:09;;;;;;;;;;;11.50;99.90;11.90;99673.00;;;;344650;28;82476;-93
2022/12/25 00:00:31;;;;;;;;;;;11.50;99.90;11.90;99670.00;;;;338892;28;90276;-92
2022/12/25 00:00:43;;;;;;;;;;;11.50;99.90;12.00;99661.00;;;;344439;28;83586;-93
2022/12/25 00:00:54;;;;;;;;;;;11.60;99.90;11.90;99665.00;;;;346973;28;90639;-93
2022/12/25 00:01:20;;;;;;;;;;;11.60;99.90;11.90;99658.00;;;;343356;28;83439;-93
2022/12/25 00:01:32;;;;;;;;;;;11.50;99.90;11.80;99661.00;;;;342483;28;92026;-93
2022/12/25 00:01:44;;;;;;;;;;;11.60;99.90;11.80;99663.00;;;;346312;28;83439;-94
2022/12/25 00:01:56;;;;;;;;;;;11.60;99.90;11.80;99659.00;;;;344334;28;91601;-92
2022/12/25 00:02:08;;;;;;;;;;;11.50;99.90;11.80;99668.00;;;;344706;28;82489;-93
2022/12/25 00:02:19;;;;;;;;;;;11.60;99.90;11.70;99663.00;;;;338781;28;92303;-94
2022/12/25 00:02:31;;;;;;;;;;;11.50;99.90;11.80;99666.00;;;;339255;28;83463;-93
2022/12/25 00:02:43;;;;;;;;;;;11.50;99.90;11.70;99660.00;;;;340188;28;89873;-92
2022/12/25 00:02:55;;;;;;;;;;;11.50;99.90;11.70;99665.00;;;;338000;28;83228;-92
2022/12/25 00:03:07;;;;;;;;;;;11.50;99.90;11.70;99664.00;;;;345620;28;91755;-93
2022/12/25 00:03:19;;;;;;;;;;;11.50;99.90;11.90;99657.00;;;;345582;28;83410;-92
2022/12/25 00:03:32;;;;;;;;;;;11.50;99.90;11.90;99664.00;;;;342816;28;92094;-93
2022/12/25 00:03:44;;;;;;;;;;;11.50;99.90;11.90;99660.00;;;;343349;28;83399;-93
2022/12/25 00:03:56;;;;;;;;;;;11.50;99.90;11.80;99664.00;;;;343070;28;90681;-92
2022/12/25 00:04:08;;;;;;;;;;;11.50;99.90;11.80;99665.00;;;;344791;28;83376;-93
2022/12/25 00:04:20;;;;;;;;;;;11.60;99.90;11.80;99657.00;;;;344453;28;92423;-93
2022/12/25 00:04:32;;;;;;;;;;;11.60;99.90;11.70;99663.00;;;;343376;28;83342;-93
2022/12/25 00:04:44;;;;;;;;;;;11.50;99.90;11.70;99655.00;;;;344644;28;90806;-92
2022/12/25 00:04:56;;;;;;;;;;;11.50;99.90;11.80;99655.00;;;;346252;28;83551;-93
2022/12/25 00:05:08;;;;;;;;;;;11.50;99.90;11.70;99649.00;;;;342815;28;90126;-93
2022/12/25 00:05:20;;;;;;;;;;;11.50;99.90;11.70;99655.00;;;;344806;28;83597;-94
2022/12/25 00:05:32;;;;;;;;;;;11.50;99.90;11.80;99653.00;;;;346825;28;91157;-93
2022/12/25 00:05:44;;;;;;;;;;;11.50;99.90;11.80;99653.00;;;;347414;28;82381;-93
2022/12/25 00:05:57;;;;;;;;;;;11.50;99.90;11.80;99655.00;;;;335000;29;91402;-93
2022/12/25 00:06:09;;;;;;;;;;;11.50;99.90;11.80;99654.00;;;;337952;28;83267;-93
2022/12/25 00:06:21;;;;;;;;;;;11.50;99.90;11.80;99650.00;;;;344591;28;90214;-93
2022/12/25 00:06:34;;;;;;;;;;;11.50;99.90;11.90;99654.00;;;;341518;28;82597;-93
2022/12/25 00:06:46;;;;;;;;;;;11.50;99.90;11.80;99653.00;;;;337649;28;89994;-93
2022/12/25 00:06:58;;;;;;;;;;;11.50;99.90;11.80;99654.00;;;;339245;28;83429;-93
2022/12/25 00:07:11;;;;;;;;;;;11.50;99.90;11.70;99647.00;;;;337579;28;90457;-92
2022/12/25 00:07:23;;;;;;;;;;;11.50;99.90;11.80;99647.00;;;;338131;28;82508;-93
2022/12/25 00:07:35;;;;;;;;;;;11.50;99.90;11.80;99642.00;;;;338185;28;91869;-92
2022/12/25 00:07:46;;;;;;;;;;;11.50;99.90;11.80;99651.00;;;;342319;28;83334;-92
2022/12/25 00:07:58;;;;;;;;;;;11.50;99.90;11.70;99651.00;;;;341454;28;91104;-92
2022/12/25 00:08:10;;;;;;;;;;;11.50;99.90;11.80;99647.00;;;;338239;28;82370;-93
2022/12/25 00:08:22;;;;;;;;;;;11.50;99.90;11.80;99655.00;;;;336409;28;92669;-93
2022/12/25 00:08:34;;;;;;;;;;;11.50;99.90;11.80;99659.00;;;;343389;28;83349;-93
2022/12/25 00:08:46;;;;;;;;;;;11.50;99.90;11.70;99644.00;;;;337766;28;91347;-93
2022/12/25 00:08:58;;;;;;;;;;;11.50;99.90;11.70;99649.00;;;;338006;28;82605;-93
2022/12/25 00:09:11;;;;;;;;;;;11.50;99.90;11.80;99647.00;;;;342512;28;89642;-92
2022/12/25 00:09:23;;;;;;;;;;;11.50;99.90;11.80;99646.00;;;;343166;28;82566;-93
2022/12/25 00:09:35;;;;;;;;;;;11.50;99.90;11.70;99646.00;;;;343378;28;90833;-93
2022/12/25 00:09:47;;;;;;;;;;;11.40;99.90;11.80;99647.00;;;;338264;28;83358;-93
2022/12/25 00:09:59;;;;;;;;;;;11.50;99.90;11.80;99648.00;;;;337655;28;90594;-92
2022/12/25 00:10:11;;;;;;;;;;;11.50;99.90;11.80;99645.00;;;;344873;28;83322;-91
2022/12/25 00:10:24;;;;;;;;;;;11.50;99.90;11.80;99655.00;;;;341685;28;92757;-93
2022/12/25 00:10:36;;;;;;;;;;;11.50;99.90;11.80;99654.00;;;;343365;28;82523;-92
2022/12/25 00:11:00;;;;;;;;;;;11.50;99.90;11.90;99651.00;;;;345930;28;90545;-92
2022/12/25 00:11:16;;;;;;;;;;;11.50;99.90;11.90;99643.00;;;;337925;28;83248;-92
2022/12/25 00:11:28;;;;;;;;;;;11.50;99.90;11.90;99643.00;;;;337602;28;90589;-92
2022/12/25 00:11:40;;;;;;;;;;;11.50;99.90;11.80;99642.00;;;;346184;28;83349;-92
2022/12/25 00:11:51;;;;;;;;;;;11.50;99.90;11.80;99640.00;;;;342824;28;91532;-91
2022/12/25 00:12:03;;;;;;;;;;;11.50;99.90;11.90;99650.00;;;;343512;28;82475;-92
2022/12/25 00:12:15;;;;;;;;;;;11.50;99.90;11.90;99644.00;;;;344315;28;90650;-93
2022/12/25 00:12:27;;;;;;;;;;;11.50;99.90;11.80;99651.00;;;;343485;28;83379;-93
2022/12/25 00:12:39;;;;;;;;;;;11.50;99.90;11.80;99651.00;;;;344315;28;92738;-92
2022/12/25 00:12:51;;;;;;;;;;;11.50;99.90;11.90;99639.00;;;;340779;28;83422;-92
2022/12/25 00:13:03;;;;;;;;;;;11.50;99.90;11.90;99639.00;;;;341046;28;90904;-93
2022/12/25 00:13:15;;;;;;;;;;;11.50;99.90;11.90;99644.00;;;;344524;28;83464;-93
2022/12/25 00:13:27;;;;;;;;;;;11.50;99.90;11.90;99639.00;;;;342670;28;89858;-93
2022/12/25 00:13:39;;;;;;;;;;;11.50;99.90;11.80;99644.00;;;;340465;28;82566;-92
2022/12/25 00:13:51;;;;;;;;;;;11.50;99.90;11.80;99643.00;;;;344829;28;91813;-93
2022/12/25 00:14:03;;;;;;;;;;;11.50;99.90;11.90;99643.00;;;;345000;28;83466;-93
2022/12/25 00:14:15;;;;;;;;;;;11.50;99.90;11.90;99643.00;;;;338028;28;90989;-93
2022/12/25 00:14:27;;;;;;;;;;;11.50;99.90;11.90;99640.00;;;;338111;28;82571;-93
2022/12/25 00:14:39;;;;;;;;;;;11.50;99.90;12.00;99640.00;;;;337427;28;92272;-92
2022/12/25 00:14:52;;;;;;;;;;;11.50;99.90;12.00;99644.00;;;;335505;29;82561;-92
2022/12/25 00:15:04;;;;;;;;;;;11.50;99.90;12.00;99643.00;;;;343076;28;91715;-93
2022/12/25 00:15:17;;;;;;;;;;;11.50;99.90;12.00;99643.00;;;;336755;28;82592;-93
2022/12/25 00:15:29;;;;;;;;;;;11.60;99.90;12.00;99648.00;;;;335260;29;91624;-93
2022/12/25 00:15:41;;;;;;;;;;;11.50;99.90;12.00;99642.00;;;;345175;28;82490;-93
2022/12/25 00:15:53;;;;;;;;;;;11.50;99.90;12.00;99640.00;;;;344554;28;91582;-90
2022/12/25 00:16:13;;;;;;;;;;;11.60;99.90;11.90;99645.00;;;;343810;28;82685;-93
2022/12/25 00:16:25;;;;;;;;;;;11.50;99.90;12.00;99644.00;;;;343002;28;91286;-93
2022/12/25 00:16:37;;;;;;;;;;;11.60;99.90;11.90;99647.00;;;;342222;28;83433;-93
2022/12/25 00:16:49;;;;;;;;;;;11.60;99.90;11.90;99640.00;;;;341561;28;92534;-93
2022/12/25 00:17:01;;;;;;;;;;;11.60;99.90;12.00;99636.00;;;;345151;28;82448;-93
2022/12/25 00:17:14;;;;;;;;;;;11.50;99.90;12.00;99642.00;;;;337731;28;89979;-92
2022/12/25 00:17:26;;;;;;;;;;;11.50;99.90;12.00;99641.00;;;;336750;28;83504;-92
2022/12/25 00:17:37;;;;;;;;;;;11.60;99.90;11.80;99644.00;;;;340084;28;90265;-93
2022/12/25 00:17:49;;;;;;;;;;;11.60;99.90;11.80;99641.00;;;;341210;28;82489;-93
2022/12/25 00:18:01;;;;;;;;;;;11.50;99.90;11.80;99650.00;;;;342127;28;90285;-93
2022/12/25 00:18:13;;;;;;;;;;;11.60;99.90;11.90;99642.00;;;;336905;28;82546;-93
2022/12/25 00:18:25;;;;;;;;;;;11.50;99.90;11.80;99642.00;;;;336530;28;91675;-93
2022/12/25 00:18:37;;;;;;;;;;;11.50;99.90;11.80;99640.00;;;;344828;28;83201;-93
2022/12/25 00:18:50;;;;;;;;;;;11.50;99.90;11.90;99638.00;;;;340485;28;92483;-93
2022/12/25 00:19:02;;;;;;;;;;;11.50;99.90;11.80;99635.00;;;;342437;28;83315;-92
2022/12/25 00:19:15;;;;;;;;;;;11.50;99.90;11.80;99645.00;;;;343296;28;91623;-93
2022/12/25 00:19:27;;;;;;;;;;;11.50;99.90;11.80;99646.00;;;;343720;28;82451;-93
2022/12/25 00:19:39;;;;;;;;;;;11.50;99.90;11.80;99641.00;;;;344603;28;91702;-92
2022/12/25 00:19:51;;;;;;;;;;;11.50;99.90;11.90;99647.00;;;;343715;28;83370;-93
2022/12/25 00:20:04;;;;;;;;;;;11.50;99.90;11.90;99647.00;;;;344564;28;91343;-92
2022/12/25 00:20:16;;;;;;;;;;;11.50;99.90;11.90;99651.00;;;;340941;28;83430;-93
2022/12/25 00:20:28;;;;;;;;;;;11.60;99.90;11.90;99643.00;;;;341820;28;89960;-93
2022/12/25 00:20:40;;;;;;;;;;;11.50;99.90;11.90;99640.00;;;;344962;28;83437;-93
2022/12/25 00:20:59;;;;;;;;;;;11.50;99.90;11.90;99643.00;;;;341989;28;91493;-94
2022/12/25 00:21:12;;;;;;;;;;;11.50;99.90;11.90;99643.00;;;;343728;28;83357;-93
2022/12/25 00:21:25;;;;;;;;;;;11.50;99.90;11.90;99642.00;;;;344573;28;88876;-92
2022/12/25 00:21:36;;;;;;;;;;;11.50;99.90;11.90;99643.00;;;;341067;28;83485;-93
2022/12/25 00:21:48;;;;;;;;;;;11.50;99.90;11.90;99642.00;;;;341924;28;91410;-93
2022/12/25 00:22:00;;;;;;;;;;;11.50;99.90;11.80;99640.00;;;;345186;28;83424;-93
2022/12/25 00:22:13;;;;;;;;;;;11.50;99.90;11.90;99631.00;;;;344241;28;89592;-93
2022/12/25 00:22:25;;;;;;;;;;;11.50;99.90;11.80;99636.00;;;;337142;28;82515;-93
2022/12/25 00:22:37;;;;;;;;;;;11.50;99.90;11.80;99643.00;;;;336710;28;90947;-94
2022/12/25 00:22:49;;;;;;;;;;;11.50;99.90;11.90;99638.00;;;;343637;28;82329;-93
2022/12/25 00:23:01;;;;;;;;;;;11.50;99.90;11.90;99639.00;;;;343251;28;91053;-93
2022/12/25 00:23:13;;;;;;;;;;;11.50;99.90;11.90;99638.00;;;;342550;28;82384;-94
2022/12/25 00:23:25;;;;;;;;;;;11.50;99.90;12.00;99632.00;;;;343455;28;89911;-93
2022/12/25 00:23:37;;;;;;;;;;;11.50;99.90;12.10;99632.00;;;;345255;28;82258;-93
2022/12/25 00:23:56;;;;;;;;;;;11.60;99.90;12.10;99637.00;;;;342052;28;90660;-93
2022/12/25 00:24:08;;;;;;;;;;;11.50;99.90;12.10;99633.00;;;;343700;28;82693;-94
2022/12/25 00:24:20;;;;;;;;;;;11.50;99.90;12.10;99629.00;;;;344352;28;90710;-93
2022/12/25 00:24:32;;;;;;;;;;;11.60;99.90;12.00;99632.00;;;;342280;28;82575;-93
2022/12/25 00:24:46;;;;;;;;;;;11.60;99.90;12.00;99635.00;;;;344597;28;90279;-94
2022/12/25 00:24:58;;;;;;;;;;;11.60;99.90;12.10;99640.00;;;;346481;28;82432;-94
2022/12/25 00:25:10;;;;;;;;;;;11.60;99.90;12.10;99635.00;;;;343007;28;91685;-95
2022/12/25 00:25:22;;;;;;;;;;;11.60;99.90;12.10;99628.00;;;;337835;28;83450;-94
2022/12/25 00:25:34;;;;;;;;;;;11.60;99.90;12.00;99636.00;;;;336304;28;91513;-93
2022/12/25 00:25:45;;;;;;;;;;;11.60;99.90;11.90;99637.00;;;;343044;28;83576;-93
2022/12/25 00:25:58;;;;;;;;;;;11.60;99.90;11.90;99640.00;;;;341089;28;90255;-93
2022/12/25 00:26:11;;;;;;;;;;;11.60;99.90;11.90;99631.00;;;;343760;28;83393;-94
2022/12/25 00:26:24;;;;;;;;;;;11.50;99.90;12.00;99634.00;;;;335350;28;89436;-92
2022/12/25 00:26:36;;;;;;;;;;;11.60;99.90;12.00;99638.00;;;;335587;29;82548;-92
2022/12/25 00:26:48;;;;;;;;;;;11.60;99.90;12.00;99633.00;;;;342133;28;90144;-94
2022/12/25 00:27:01;;;;;;;;;;;11.60;99.90;11.90;99633.00;;;;343889;28;83389;-94
2022/12/25 00:27:13;;;;;;;;;;;11.60;99.90;11.90;99631.00;;;;345882;28;91859;-93
2022/12/25 00:27:25;;;;;;;;;;;11.60;99.90;11.90;99630.00;;;;344064;28;83339;-93
2022/12/25 00:27:37;;;;;;;;;;;11.60;99.90;11.80;99633.00;;;;343837;28;90248;-93
2022/12/25 00:27:49;;;;;;;;;;;11.60;99.90;11.90;99630.00;;;;345498;28;83308;-93
2022/12/25 00:28:01;;;;;;;;;;;11.60;99.90;11.90;99624.00;;;;344675;28;90514;-93
2022/12/25 00:28:13;;;;;;;;;;;11.60;99.90;12.00;99626.00;;;;342321;28;82518;-93
2022/12/25 00:28:24;;;;;;;;;;;11.60;99.90;11.90;99626.00;;;;342119;28;90653;-93
2022/12/25 00:28:38;;;;;;;;;;;11.60;99.90;12.00;99635.00;;;;343763;28;82565;-94
2022/12/25 00:28:52;;;;;;;;;;;11.60;99.90;11.90;99622.00;;;;342177;28;90512;-93
2022/12/25 00:29:04;;;;;;;;;;;11.60;99.90;11.90;99626.00;;;;342921;28;82466;-92
2022/12/25 00:29:16;;;;;;;;;;;11.60;99.90;11.90;99631.00;;;;344341;28;91145;-93
2022/12/25 00:29:28;;;;;;;;;;;11.60;99.90;11.90;99620.00;;;;345801;28;82533;-93
2022/12/25 00:29:40;;;;;;;;;;;11.60;99.90;11.90;99632.00;;;;344228;28;90463;-93
2022/12/25 00:29:52;;;;;;;;;;;11.50;99.90;11.90;99635.00;;;;344516;28;83342;-92
2022/12/25 00:30:06;;;;;;;;;;;11.50;99.90;11.90;99627.00;;;;341465;28;90198;-93
2022/12/25 00:30:18;;;;;;;;;;;11.50;99.90;11.80;99634.00;;;;344478;28;82485;-93
2022/12/25 00:30:30;;;;;;;;;;;11.50;99.90;11.80;99631.00;;;;345426;28;91606;-91
2022/12/25 00:30:42;;;;;;;;;;;11.50;99.90;11.80;99633.00;;;;342941;28;82610;-93
2022/12/25 00:30:54;;;;;;;;;;;11.50;99.90;11.80;99627.00;;;;345775;28;89315;-92
2022/12/25 00:31:12;;;;;;;;;;;11.50;99.90;11.90;99633.00;;;;340263;28;82506;-92
2022/12/25 00:31:24;;;;;;;;;;;11.50;99.90;11.80;99629.00;;;;335830;29;92902;-93
2022/12/25 00:31:36;;;;;;;;;;;11.50;99.90;11.80;99634.00;;;;344440;28;83052;-93
2022/12/25 00:31:48;;;;;;;;;;;11.50;99.90;11.90;99629.00;;;;342765;28;90131;-94
2022/12/25 00:31:59;;;;;;;;;;;11.50;99.90;11.80;99618.00;;;;345737;28;82494;-92
2022/12/25 00:32:11;;;;;;;;;;;11.50;99.90;11.70;99631.00;;;;345088;28;90648;-92
2022/12/25 00:32:23;;;;;;;;;;;11.50;99.90;11.70;99624.00;;;;345780;28;82484;-92
2022/12/25 00:32:36;;;;;;;;;;;11.50;99.90;11.80;99621.00;;;;343331;28;90994;-92
2022/12/25 00:32:48;;;;;;;;;;;11.50;99.90;11.80;99623.00;;;;347211;28;83353;-93
2022/12/25 00:33:00;;;;;;;;;;;11.50;99.90;11.70;99625.00;;;;345093;28;91986;-93
2022/12/25 00:33:12;;;;;;;;;;;11.50;99.90;11.70;99628.00;;;;343801;28;82482;-92
2022/12/25 00:33:25;;;;;;;;;;;11.50;99.90;11.80;99622.00;;;;336837;29;91538;-92
2022/12/25 00:33:38;;;;;;;;;;;11.50;99.90;11.80;99624.00;;;;335493;29;82461;-93
2022/12/25 00:33:50;;;;;;;;;;;11.50;99.90;11.80;99628.00;;;;338940;28;90164;-93
2022/12/25 00:34:02;;;;;;;;;;;11.50;99.90;11.80;99628.00;;;;339214;28;83539;-93
2022/12/25 00:34:14;;;;;;;;;;;11.50;99.90;11.80;99625.00;;;;345512;28;90104;-93
2022/12/25 00:34:26;;;;;;;;;;;11.50;99.90;11.80;99629.00;;;;337980;28;82465;-92
2022/12/25 00:34:38;;;;;;;;;;;11.50;99.90;11.70;99631.00;;;;338692;28;90388;-92
2022/12/25 00:34:50;;;;;;;;;;;11.50;99.90;11.70;99627.00;;;;347600;28;82347;-93
2022/12/25 00:35:04;;;;;;;;;;;11.50;99.90;11.60;99625.00;;;;344384;28;91495;-93
2022/12/25 00:35:15;;;;;;;;;;;11.50;99.90;11.60;99623.00;;;;339195;28;83383;-92
2022/12/25 00:35:27;;;;;;;;;;;11.50;99.90;11.60;99629.00;;;;340126;28;91220;-93
2022/12/25 00:35:39;;;;;;;;;;;11.50;99.90;11.60;99630.00;;;;336531;29;83452;-92
2022/12/25 00:36:00;;;;;;;;;;;11.50;99.90;11.80;99629.00;;;;337598;28;90529;-93
2022/12/25 00:36:12;;;;;;;;;;;11.50;99.90;11.80;99612.00;;;;346219;28;82727;-93
2022/12/25 00:36:24;;;;;;;;;;;11.50;99.90;11.70;99632.00;;;;343103;28;90760;-92
2022/12/25 00:36:37;;;;;;;;;;;11.50;99.90;11.70;99623.00;;;;343503;28;83464;-94
2022/12/25 00:36:53;;;;;;;;;;;11.50;99.90;11.70;99619.00;;;;343150;28;90344;-92
2022/12/25 00:37:04;;;;;;;;;;;11.50;99.90;11.80;99620.00;;;;343254;28;83504;-93
2022/12/25 00:37:16;;;;;;;;;;;11.50;99.90;11.80;99624.00;;;;344377;28;90531;-91
2022/12/25 00:37:28;;;;;;;;;;;11.50;99.90;11.80;99611.00;;;;342051;28;82490;-93
2022/12/25 00:37:40;;;;;;;;;;;11.50;99.90;11.80;99615.00;;;;342729;28;91459;-94
2022/12/25 00:37:52;;;;;;;;;;;11.50;99.90;11.80;99626.00;;;;342049;28;82513;-93
2022/12/25 00:38:04;;;;;;;;;;;11.50;99.90;11.80;99616.00;;;;345752;28;89593;-93
2022/12/25 00:38:16;;;;;;;;;;;11.40;99.90;11.80;99627.00;;;;343583;28;83223;-93
2022/12/25 00:38:28;;;;;;;;;;;11.50;99.90;11.80;99619.00;;;;345828;28;90262;-94
2022/12/25 00:38:41;;;;;;;;;;;11.50;99.90;11.80;99627.00;;;;347708;28;82569;-93
2022/12/25 00:38:53;;;;;;;;;;;11.50;99.90;11.80;99625.00;;;;337628;28;91753;-94
2022/12/25 00:39:06;;;;;;;;;;;11.50;99.90;11.70;99613.00;;;;339440;28;82529;-93
2022/12/25 00:39:18;;;;;;;;;;;11.40;99.90;11.70;99621.00;;;;341563;28;91570;-93
2022/12/25 00:39:30;;;;;;;;;;;11.50;99.90;11.70;99624.00;;;;336660;29;83378;-93
2022/12/25 00:39:42;;;;;;;;;;;11.50;99.90;11.70;99633.00;;;;333987;29;91501;-92
2022/12/25 00:39:55;;;;;;;;;;;11.50;99.90;11.70;99618.00;;;;342300;28;83400;-93
2022/12/25 00:40:07;;;;;;;;;;;11.50;99.90;11.80;99617.00;;;;341588;28;90703;-93
2022/12/25 00:40:19;;;;;;;;;;;11.40;99.90;11.70;99618.00;;;;335437;29;82435;-93
2022/12/25 00:40:31;;;;;;;;;;;11.50;99.90;11.60;99624.00;;;;335184;29;91348;-93
2022/12/25 00:40:43;;;;;;;;;;;11.50;99.90;11.70;99623.00;;;;343526;28;82446;-92
2022/12/25 00:40:55;;;;;;;;;;;11.40;99.90;11.70;99619.00;;;;335480;29;91461;-93
2022/12/25 00:41:09;;;;;;;;;;;11.40;99.90;11.70;99619.00;;;;334457;29;83260;-92
2022/12/25 00:42:27;;;;;;;;;;;11.40;99.90;11.90;99620.00;;;;344050;28;92551;-93
2022/12/25 00:42:39;;;;;;;;;;;11.50;99.90;11.90;99616.00;;;;336701;28;82549;-93
2022/12/25 00:42:51;;;;;;;;;;;11.50;99.90;11.90;99612.00;;;;336203;28;91868;-93
2022/12/25 00:43:03;;;;;;;;;;;11.50;99.90;11.90;99616.00;;;;343644;28;83226;-93
2022/12/25 00:43:15;;;;;;;;;;;11.50;99.90;11.80;99618.00;;;;343286;28;90517;-92
2022/12/25 00:43:27;;;;;;;;;;;11.50;99.90;11.80;99616.00;;;;335322;29;83384;-93
2022/12/25 00:43:40;;;;;;;;;;;11.50;99.90;11.80;99616.00;;;;343063;28;90609;-93
2022/12/25 00:43:52;;;;;;;;;;;11.50;99.90;11.90;99611.00;;;;335534;29;82387;-93
2022/12/25 00:44:05;;;;;;;;;;;11.50;99.90;11.90;99615.00;;;;338602;28;89892;-93
2022/12/25 00:44:17;;;;;;;;;;;11.50;99.90;11.90;99612.00;;;;345009;28;83347;-93
2022/12/25 00:44:29;;;;;;;;;;;11.50;99.90;11.90;99617.00;;;;337595;28;91334;-93
2022/12/25 00:44:40;;;;;;;;;;;11.50;99.90;11.90;99616.00;;;;339165;28;82510;-92
2022/12/25 00:44:52;;;;;;;;;;;11.50;99.90;11.90;99616.00;;;;342879;28;91245;-93
2022/12/25 00:45:05;;;;;;;;;;;11.50;99.90;11.90;99618.00;;;;340739;28;83402;-93
2022/12/25 00:45:17;;;;;;;;;;;11.50;99.90;11.90;99611.00;;;;342881;28;90522;-93
2022/12/25 00:45:29;;;;;;;;;;;11.50;99.90;11.80;99617.00;;;;344830;28;83522;-93
2022/12/25 00:45:41;;;;;;;;;;;11.50;99.90;11.90;99617.00;;;;344112;28;90398;-93
2022/12/25 00:45:58;;;;;;;;;;;11.50;99.90;12.00;99614.00;;;;343603;28;82579;-92
2022/12/25 00:46:12;;;;;;;;;;;11.50;99.90;11.80;99620.00;;;;345802;28;90392;-93
2022/12/25 00:46:24;;;;;;;;;;;11.50;99.90;11.90;99617.00;;;;344905;28;82523;-93
2022/12/25 00:46:37;;;;;;;;;;;11.50;99.90;11.90;99613.00;;;;339925;28;91387;-93
2022/12/25 00:46:50;;;;;;;;;;;11.50;99.90;11.90;99613.00;;;;339546;28;83384;-93
2022/12/25 00:47:02;;;;;;;;;;;11.50;99.90;11.90;99616.00;;;;339074;28;92149;-93
2022/12/25 00:47:14;;;;;;;;;;;11.50;99.90;11.80;99614.00;;;;340769;28;82514;-93
2022/12/25 00:47:27;;;;;;;;;;;11.50;99.90;11.80;99617.00;;;;337788;28;91808;-94
2022/12/25 00:47:40;;;;;;;;;;;11.50;99.90;11.70;99611.00;;;;339431;28;82584;-93
2022/12/25 00:47:52;;;;;;;;;;;11.50;99.90;11.70;99618.00;;;;338893;28;89566;-93
2022/12/25 00:48:04;;;;;;;;;;;11.50;99.90;11.90;99615.00;;;;336750;28;82472;-92
2022/12/25 00:48:16;;;;;;;;;;;11.40;99.90;11.90;99610.00;;;;336504;28;90471;-93
2022/12/25 00:48:28;;;;;;;;;;;11.50;99.90;11.80;99611.00;;;;338011;28;82493;-93
2022/12/25 00:48:44;;;;;;;;;;;11.50;99.90;11.90;99614.00;;;;341518;28;92758;-93
2022/12/25 00:48:58;;;;;;;;;;;11.50;99.90;11.80;99614.00;;;;338168;28;82500;-93
2022/12/25 00:49:11;;;;;;;;;;;11.50;99.90;11.90;99620.00;;;;337785;28;90618;-94
2022/12/25 00:49:30;;;;;;;;;;;11.50;99.90;11.90;99614.00;;;;339513;28;82590;-93
2022/12/25 00:49:42;;;;;;;;;;;11.50;99.90;11.90;99616.00;;;;340215;28;90644;-93
2022/12/25 00:49:54;;;;;;;;;;;11.50;99.90;11.80;99612.00;;;;338067;28;82443;-93
2022/12/25 00:50:07;;;;;;;;;;;11.50;99.90;11.80;99613.00;;;;338427;28;91280;-93
2022/12/25 00:50:19;;;;;;;;;;;11.50;99.90;11.80;99613.00;;;;347735;28;83285;-93
2022/12/25 00:50:30;;;;;;;;;;;11.50;99.90;11.80;99610.00;;;;344258;28;91144;-93
2022/12/25 00:50:42;;;;;;;;;;;11.50;99.90;11.80;99618.00;;;;337769;28;83406;-93
2022/12/25 00:50:55;;;;;;;;;;;11.50;99.90;11.90;99621.00;;;;338690;28;91735;-93
2022/12/25 00:51:09;;;;;;;;;;;11.50;99.90;11.90;99605.00;;;;339139;28;82481;-94
2022/12/25 00:51:21;;;;;;;;;;;11.50;99.90;11.80;99614.00;;;;337437;28;91155;-93
2022/12/25 00:51:36;;;;;;;;;;;11.50;99.90;11.70;99606.00;;;;337826;28;83493;-94
2022/12/25 00:51:51;;;;;;;;;;;11.50;99.90;11.80;99612.00;;;;345883;28;91258;-94
2022/12/25 00:52:03;;;;;;;;;;;11.50;99.90;11.70;99609.00;;;;342254;28;83340;-93
2022/12/25 00:52:15;;;;;;;;;;;11.50;99.90;11.70;99615.00;;;;337722;28;91555;-94
2022/12/25 00:52:27;;;;;;;;;;;11.50;99.90;11.60;99613.00;;;;339364;28;82514;-93
2022/12/25 00:52:39;;;;;;;;;;;11.40;99.90;11.60;99615.00;;;;337377;28;90096;-93
2022/12/25 00:52:51;;;;;;;;;;;11.40;99.90;11.50;99622.00;;;;339269;28;82578;-93
2022/12/25 00:53:03;;;;;;;;;;;11.40;99.90;11.50;99614.00;;;;338764;28;91874;-93
2022/12/25 00:53:15;;;;;;;;;;;11.40;99.90;11.60;99603.00;;;;340427;28;83351;-93
2022/12/25 00:53:27;;;;;;;;;;;11.40;99.90;11.70;99615.00;;;;339963;28;91405;-93
2022/12/25 00:53:39;;;;;;;;;;;11.40;99.90;11.60;99614.00;;;;339153;28;82302;-93
2022/12/25 00:53:51;;;;;;;;;;;11.40;99.90;11.60;99607.00;;;;336140;28;91443;-94
2022/12/25 00:54:02;;;;;;;;;;;11.40;99.90;11.50;99618.00;;;;337796;28;83341;-93
2022/12/25 00:54:14;;;;;;;;;;;11.40;99.90;11.50;99621.00;;;;337534;28;90269;-93
2022/12/25 00:54:26;;;;;;;;;;;11.40;99.90;11.50;99620.00;;;;336541;28;82458;-93
2022/12/25 00:54:38;;;;;;;;;;;11.40;99.90;11.50;99619.00;;;;338716;28;91437;-92
2022/12/25 00:54:50;;;;;;;;;;;11.40;99.90;11.50;99617.00;;;;337818;28;83178;-93
2022/12/25 00:55:02;;;;;;;;;;;11.40;99.90;11.50;99614.00;;;;337326;28;91282;-93
2022/12/25 00:55:14;;;;;;;;;;;11.30;99.90;11.50;99619.00;;;;337985;28;83455;-93
2022/12/25 00:55:26;;;;;;;;;;;11.40;99.90;11.50;99613.00;;;;337676;28;90082;-93
2022/12/25 00:55:38;;;;;;;;;;;11.30;99.90;11.50;99613.00;;;;337981;28;83522;-93
2022/12/25 00:55:57;;;;;;;;;;;11.30;99.90;11.50;99613.00;;;;338595;28;90613;-93
2022/12/25 00:56:09;;;;;;;;;;;11.30;99.90;11.40;99620.00;;;;337865;28;83421;-93
2022/12/25 00:56:21;;;;;;;;;;;11.30;99.90;11.40;99619.00;;;;339022;28;90774;-93
2022/12/25 00:56:33;;;;;;;;;;;11.30;99.90;11.40;99614.00;;;;338024;28;82708;-93
2022/12/25 00:56:45;;;;;;;;;;;11.30;99.90;11.40;99612.00;;;;337739;28;90568;-94
2022/12/25 00:56:57;;;;;;;;;;;11.30;99.90;11.30;99619.00;;;;339409;28;82491;-93
2022/12/25 00:57:09;;;;;;;;;;;11.20;99.90;11.30;99616.00;;;;340265;28;90767;-93
2022/12/25 00:57:21;;;;;;;;;;;11.30;99.90;11.30;99604.00;;;;339154;28;82443;-93
2022/12/25 00:57:33;;;;;;;;;;;11.20;99.90;11.30;99617.00;;;;337613;28;90428;-93
2022/12/25 00:57:45;;;;;;;;;;;11.20;99.90;11.30;99622.00;;;;339402;28;82448;-93
2022/12/25 00:57:57;;;;;;;;;;;11.20;99.90;11.30;99605.00;;;;337498;28;88182;-92
2022/12/25 00:58:10;;;;;;;;;;;11.20;99.90;11.30;99609.00;;;;339285;28;83398;-92
2022/12/25 00:58:22;;;;;;;;;;;11.20;99.90;11.30;99606.00;;;;337657;28;90911;-93
2022/12/25 00:58:35;;;;;;;;;;;11.20;99.90;11.40;99619.00;;;;339297;28;83357;-93
2022/12/25 00:58:47;;;;;;;;;;;11.10;99.90;11.40;99618.00;;;;337564;28;91416;-94
2022/12/25 00:58:58;;;;;;;;;;;11.20;99.90;11.50;99610.00;;;;338018;28;82484;-93
2022/12/25 00:59:10;;;;;;;;;;;11.20;99.90;11.40;99620.00;;;;337494;28;91174;-93
2022/12/25 00:59:22;;;;;;;;;;;11.20;99.90;11.40;99610.00;;;;337783;28;83548;-93
2022/12/25 00:59:34;;;;;;;;;;;11.20;99.90;11.30;99607.00;;;;337284;28;91295;-92
2022/12/25 00:59:46;;;;;;;;;;;11.20;99.90;11.30;99612.00;;;;337869;28;83264;-93
2022/12/25 00:59:58;;;;;;;;;;;11.10;99.90;11.20;99614.00;;;;338744;28;91617;-92
2022/12/25 01:00:11;;;;;;;;;;;11.10;99.90;11.20;99613.00;;;;337830;28;83400;-92
2022/12/25 01:00:22;;;;;;;;;;;11.10;99.90;11.20;99617.00;;;;338624;28;90800;-93
2022/12/25 01:00:34;;;;;;;;;;;11.10;99.90;11.20;99613.00;;;;347392;28;83440;-93
2022/12/25 01:00:47;;;;;;;;;;;11.10;99.90;11.20;99612.00;;;;344231;28;89401;-93
2022/12/25 01:00:59;;;;;;;;;;;11.10;99.90;11.20;99609.00;;;;337829;28;83352;-93
2022/12/25 01:01:11;;;;;;;;;;;11.10;99.90;11.20;99609.00;;;;334706;29;92444;-93
2022/12/25 01:01:23;;;;;;;;;;;11.10;99.90;11.20;99608.00;;;;339245;28;82527;-93
2022/12/25 01:01:35;;;;;;;;;;;11.10;99.90;11.20;99621.00;;;;341103;28;89099;-92
2022/12/25 01:01:47;;;;;;;;;;;11.10;99.90;11.20;99610.00;;;;339152;28;82542;-93
2022/12/25 01:02:29;;;;;;;;;;;11.10;99.90;11.20;99619.00;;;;339076;28;82499;-94
2022/12/25 01:02:41;;;;;;;;;;;11.10;99.90;11.20;99609.00;;;;340182;28;92210;-93
2022/12/25 01:02:53;;;;;;;;;;;11.10;99.90;11.20;99610.00;;;;341984;28;83379;-93
2022/12/25 01:03:05;;;;;;;;;;;11.10;99.90;11.30;99614.00;;;;335998;28;91667;-93
2022/12/25 01:03:17;;;;;;;;;;;11.00;99.90;11.30;99617.00;;;;336538;28;82511;-93
2022/12/25 01:03:29;;;;;;;;;;;11.00;99.90;11.20;99612.00;;;;342861;28;92782;-93